sensor_id;sensor_type;location;lat;lon;timestamp;P1;durP1;ratioP1;P2;durP2;ratioP2
52031;SDS011;38044;45.148;39.604;2023-07-28T00:02:10;16.23;;;12.27;;
52031;SDS011;38044;45.148;39.604;2023-07-28T00:04:36;15.77;;;12.32;;
52031;SDS011;38044;45.148;39.604;2023-07-28T00:07:03;15.35;;;12.30;;
52031;SDS011;38044;45.148;39.604;2023-07-28T00:09:29;13.15;;;11.57;;
52031;SDS011;38044;45.148;39.604;2023-07-28T00:11:56;14.32;;;11.65;;
52031;SDS011;38044;45.148;39.604;2023-07-28T00:14:23;15.45;;;11.35;;
52031;SDS011;38044;45.148;39.604;2023-07-28T00:16:50;14.60;;;10.73;;
52031;SDS011;38044;45.148;39.604;2023-07-28T00:19:20;16.97;;;11.53;;
52031;SDS011;38044;45.148;39.604;2023-07-28T00:21:49;16.02;;;12.82;;
52031;SDS011;38044;45.148;39.604;2023-07-28T00:24:15;17.05;;;12.70;;
52031;SDS011;38044;45.148;39.604;2023-07-28T00:26:42;15.48;;;12.70;;
52031;SDS011;38044;45.148;39.604;2023-07-28T00:29:08;17.27;;;12.82;;
52031;SDS011;38044;45.148;39.604;2023-07-28T00:31:34;17.20;;;13.07;;
52031;SDS011;38044;45.148;39.604;2023-07-28T00:34:01;22.15;;;14.05;;
52031;SDS011;38044;45.148;39.604;2023-07-28T00:36:28;20.83;;;13.77;;
52031;SDS011;38044;45.148;39.604;2023-07-28T00:38:54;19.17;;;14.15;;
52031;SDS011;38044;45.148;39.604;2023-07-28T00:41:20;22.13;;;14.30;;
52031;SDS011;38044;45.148;39.604;2023-07-28T00:43:46;19.20;;;14.23;;
52031;SDS011;38044;45.148;39.604;2023-07-28T00:46:11;16.58;;;14.75;;
52031;SDS011;38044;45.148;39.604;2023-07-28T00:48:38;22.48;;;15.18;;
52031;SDS011;38044;45.148;39.604;2023-07-28T00:51:07;19.05;;;14.70;;
52031;SDS011;38044;45.148;39.604;2023-07-28T00:53:33;18.75;;;13.60;;
52031;SDS011;38044;45.148;39.604;2023-07-28T00:56:00;16.13;;;13.27;;
52031;SDS011;38044;45.148;39.604;2023-07-28T00:58:27;15.25;;;13.73;;
52031;SDS011;38044;45.148;39.604;2023-07-28T01:00:53;15.07;;;12.88;;
52031;SDS011;38044;45.148;39.604;2023-07-28T01:03:19;15.70;;;13.00;;
52031;SDS011;38044;45.148;39.604;2023-07-28T01:08:52;15.63;;;13.02;;
52031;SDS011;38044;45.148;39.604;2023-07-28T01:11:24;15.27;;;13.48;;
52031;SDS011;38044;45.148;39.604;2023-07-28T01:13:50;15.35;;;13.20;;
52031;SDS011;38044;45.148;39.604;2023-07-28T01:16:16;14.70;;;13.13;;
52031;SDS011;38044;45.148;39.604;2023-07-28T01:18:42;18.38;;;13.30;;
52031;SDS011;38044;45.148;39.604;2023-07-28T01:21:08;20.85;;;13.55;;
52031;SDS011;38044;45.148;39.604;2023-07-28T01:24:01;15.65;;;13.27;;
52031;SDS011;38044;45.148;39.604;2023-07-28T01:26:39;13.90;;;12.40;;
52031;SDS011;38044;45.148;39.604;2023-07-28T01:29:05;14.87;;;12.40;;
52031;SDS011;38044;45.148;39.604;2023-07-28T01:31:32;14.32;;;12.80;;
52031;SDS011;38044;45.148;39.604;2023-07-28T01:33:58;17.70;;;13.00;;
52031;SDS011;38044;45.148;39.604;2023-07-28T01:36:24;15.68;;;13.93;;
52031;SDS011;38044;45.148;39.604;2023-07-28T01:38:50;13.37;;;12.03;;
52031;SDS011;38044;45.148;39.604;2023-07-28T01:41:16;15.13;;;12.48;;
52031;SDS011;38044;45.148;39.604;2023-07-28T01:43:42;17.23;;;12.45;;
52031;SDS011;38044;45.148;39.604;2023-07-28T01:46:08;14.35;;;12.43;;
52031;SDS011;38044;45.148;39.604;2023-07-28T01:48:33;14.38;;;12.13;;
52031;SDS011;38044;45.148;39.604;2023-07-28T01:50:59;14.53;;;12.17;;
52031;SDS011;38044;45.148;39.604;2023-07-28T01:53:25;13.45;;;11.43;;
52031;SDS011;38044;45.148;39.604;2023-07-28T01:55:51;13.97;;;11.87;;
52031;SDS011;38044;45.148;39.604;2023-07-28T01:58:17;12.82;;;11.52;;
52031;SDS011;38044;45.148;39.604;2023-07-28T02:00:42;13.27;;;11.87;;
52031;SDS011;38044;45.148;39.604;2023-07-28T02:03:08;13.63;;;12.10;;
52031;SDS011;38044;45.148;39.604;2023-07-28T02:05:34;13.65;;;12.25;;
52031;SDS011;38044;45.148;39.604;2023-07-28T02:08:00;13.25;;;11.75;;
52031;SDS011;38044;45.148;39.604;2023-07-28T02:10:26;13.13;;;11.82;;
52031;SDS011;38044;45.148;39.604;2023-07-28T02:12:52;14.00;;;12.15;;
52031;SDS011;38044;45.148;39.604;2023-07-28T02:15:18;12.87;;;11.63;;
52031;SDS011;38044;45.148;39.604;2023-07-28T02:17:44;13.73;;;12.27;;
52031;SDS011;38044;45.148;39.604;2023-07-28T02:20:10;13.55;;;12.07;;
52031;SDS011;38044;45.148;39.604;2023-07-28T02:22:38;12.93;;;11.63;;
52031;SDS011;38044;45.148;39.604;2023-07-28T02:25:05;14.93;;;12.35;;
52031;SDS011;38044;45.148;39.604;2023-07-28T02:27:31;13.27;;;11.87;;
52031;SDS011;38044;45.148;39.604;2023-07-28T02:29:57;17.23;;;11.57;;
52031;SDS011;38044;45.148;39.604;2023-07-28T02:32:23;15.50;;;11.80;;
52031;SDS011;38044;45.148;39.604;2023-07-28T02:34:49;15.47;;;11.97;;
52031;SDS011;38044;45.148;39.604;2023-07-28T02:37:15;14.02;;;12.52;;
52031;SDS011;38044;45.148;39.604;2023-07-28T02:39:41;14.57;;;11.43;;
52031;SDS011;38044;45.148;39.604;2023-07-28T02:42:07;14.05;;;12.10;;
52031;SDS011;38044;45.148;39.604;2023-07-28T02:44:33;15.43;;;12.37;;
52031;SDS011;38044;45.148;39.604;2023-07-28T02:46:59;14.30;;;12.45;;
52031;SDS011;38044;45.148;39.604;2023-07-28T02:49:24;14.82;;;11.65;;
52031;SDS011;38044;45.148;39.604;2023-07-28T02:51:50;15.38;;;11.95;;
52031;SDS011;38044;45.148;39.604;2023-07-28T02:54:16;15.30;;;11.53;;
52031;SDS011;38044;45.148;39.604;2023-07-28T02:56:42;15.13;;;12.02;;
52031;SDS011;38044;45.148;39.604;2023-07-28T02:59:07;14.57;;;11.63;;
52031;SDS011;38044;45.148;39.604;2023-07-28T03:01:33;13.88;;;12.27;;
52031;SDS011;38044;45.148;39.604;2023-07-28T03:04:03;13.02;;;11.65;;
52031;SDS011;38044;45.148;39.604;2023-07-28T03:06:29;13.93;;;11.60;;
52031;SDS011;38044;45.148;39.604;2023-07-28T03:08:55;13.20;;;11.80;;
52031;SDS011;38044;45.148;39.604;2023-07-28T03:11:21;15.10;;;12.02;;
52031;SDS011;38044;45.148;39.604;2023-07-28T03:13:47;12.77;;;11.40;;
52031;SDS011;38044;45.148;39.604;2023-07-28T03:16:12;14.03;;;11.70;;
52031;SDS011;38044;45.148;39.604;2023-07-28T03:18:38;13.02;;;11.48;;
52031;SDS011;38044;45.148;39.604;2023-07-28T03:21:04;12.47;;;11.17;;
52031;SDS011;38044;45.148;39.604;2023-07-28T03:23:30;14.57;;;12.07;;
52031;SDS011;38044;45.148;39.604;2023-07-28T03:25:56;14.07;;;12.37;;
52031;SDS011;38044;45.148;39.604;2023-07-28T03:28:21;13.93;;;12.60;;
52031;SDS011;38044;45.148;39.604;2023-07-28T03:30:47;13.67;;;11.57;;
52031;SDS011;38044;45.148;39.604;2023-07-28T03:33:13;15.18;;;12.35;;
52031;SDS011;38044;45.148;39.604;2023-07-28T03:35:39;14.00;;;12.60;;
52031;SDS011;38044;45.148;39.604;2023-07-28T03:38:06;15.93;;;12.93;;
52031;SDS011;38044;45.148;39.604;2023-07-28T03:40:31;14.80;;;12.75;;
52031;SDS011;38044;45.148;39.604;2023-07-28T03:42:57;13.90;;;12.10;;
52031;SDS011;38044;45.148;39.604;2023-07-28T03:45:24;12.40;;;11.10;;
52031;SDS011;38044;45.148;39.604;2023-07-28T03:47:50;12.90;;;10.82;;
52031;SDS011;38044;45.148;39.604;2023-07-28T03:50:15;14.00;;;11.65;;
52031;SDS011;38044;45.148;39.604;2023-07-28T03:52:43;14.77;;;13.20;;
52031;SDS011;38044;45.148;39.604;2023-07-28T03:55:09;13.23;;;11.38;;
52031;SDS011;38044;45.148;39.604;2023-07-28T03:57:34;12.20;;;10.70;;
52031;SDS011;38044;45.148;39.604;2023-07-28T04:00:00;12.18;;;10.20;;
52031;SDS011;38044;45.148;39.604;2023-07-28T04:02:26;14.13;;;9.73;;
52031;SDS011;38044;45.148;39.604;2023-07-28T04:04:55;10.10;;;8.95;;
52031;SDS011;38044;45.148;39.604;2023-07-28T04:07:22;17.80;;;14.80;;
52031;SDS011;38044;45.148;39.604;2023-07-28T04:09:48;14.85;;;13.30;;
52031;SDS011;38044;45.148;39.604;2023-07-28T04:12:13;12.60;;;9.50;;
52031;SDS011;38044;45.148;39.604;2023-07-28T04:14:39;10.80;;;9.15;;
52031;SDS011;38044;45.148;39.604;2023-07-28T04:17:06;11.23;;;9.07;;
52031;SDS011;38044;45.148;39.604;2023-07-28T04:19:32;13.27;;;9.00;;
52031;SDS011;38044;45.148;39.604;2023-07-28T04:21:59;16.92;;;9.02;;
52031;SDS011;38044;45.148;39.604;2023-07-28T04:24:26;17.48;;;10.23;;
52031;SDS011;38044;45.148;39.604;2023-07-28T04:26:52;12.85;;;9.27;;
52031;SDS011;38044;45.148;39.604;2023-07-28T04:29:18;10.27;;;8.93;;
52031;SDS011;38044;45.148;39.604;2023-07-28T04:31:44;11.80;;;9.10;;
52031;SDS011;38044;45.148;39.604;2023-07-28T04:34:10;13.77;;;9.10;;
52031;SDS011;38044;45.148;39.604;2023-07-28T04:36:35;14.38;;;9.65;;
52031;SDS011;38044;45.148;39.604;2023-07-28T04:39:01;10.50;;;8.43;;
52031;SDS011;38044;45.148;39.604;2023-07-28T04:41:28;12.73;;;8.00;;
52031;SDS011;38044;45.148;39.604;2023-07-28T04:43:54;10.93;;;8.07;;
52031;SDS011;38044;45.148;39.604;2023-07-28T04:46:20;9.68;;;8.07;;
52031;SDS011;38044;45.148;39.604;2023-07-28T04:48:46;10.40;;;7.15;;
52031;SDS011;38044;45.148;39.604;2023-07-28T04:51:12;8.27;;;6.93;;
52031;SDS011;38044;45.148;39.604;2023-07-28T04:53:38;7.47;;;6.78;;
52031;SDS011;38044;45.148;39.604;2023-07-28T04:56:04;10.30;;;7.17;;
52031;SDS011;38044;45.148;39.604;2023-07-28T04:58:29;8.15;;;7.20;;
52031;SDS011;38044;45.148;39.604;2023-07-28T05:00:59;11.00;;;7.60;;
52031;SDS011;38044;45.148;39.604;2023-07-28T05:03:24;11.02;;;8.57;;
52031;SDS011;38044;45.148;39.604;2023-07-28T05:05:50;12.48;;;8.40;;
52031;SDS011;38044;45.148;39.604;2023-07-28T05:08:16;10.30;;;7.88;;
52031;SDS011;38044;45.148;39.604;2023-07-28T05:10:42;9.47;;;7.20;;
52031;SDS011;38044;45.148;39.604;2023-07-28T05:13:09;11.85;;;8.00;;
52031;SDS011;38044;45.148;39.604;2023-07-28T05:15:34;9.37;;;7.67;;
52031;SDS011;38044;45.148;39.604;2023-07-28T05:18:00;9.85;;;7.50;;
52031;SDS011;38044;45.148;39.604;2023-07-28T05:20:26;60.65;;;54.55;;
52031;SDS011;38044;45.148;39.604;2023-07-28T05:37:25;386.30;;;339.90;;
52031;SDS011;38044;45.148;39.604;2023-07-28T05:39:51;292.57;;;261.87;;
52031;SDS011;38044;45.148;39.604;2023-07-28T05:42:17;37.67;;;33.67;;
52031;SDS011;38044;45.148;39.604;2023-07-28T05:44:43;19.57;;;14.60;;
52031;SDS011;38044;45.148;39.604;2023-07-28T05:47:08;14.27;;;9.18;;
52031;SDS011;38044;45.148;39.604;2023-07-28T05:49:34;20.88;;;13.82;;
52031;SDS011;38044;45.148;39.604;2023-07-28T05:52:00;17.53;;;12.37;;
52031;SDS011;38044;45.148;39.604;2023-07-28T05:54:26;14.68;;;10.73;;
52031;SDS011;38044;45.148;39.604;2023-07-28T05:56:52;16.08;;;11.60;;
52031;SDS011;38044;45.148;39.604;2023-07-28T05:59:18;13.32;;;9.88;;
52031;SDS011;38044;45.148;39.604;2023-07-28T06:01:44;13.30;;;9.83;;
52031;SDS011;38044;45.148;39.604;2023-07-28T06:04:10;17.23;;;10.30;;
52031;SDS011;38044;45.148;39.604;2023-07-28T06:06:36;18.13;;;11.60;;
52031;SDS011;38044;45.148;39.604;2023-07-28T06:09:02;17.23;;;11.52;;
52031;SDS011;38044;45.148;39.604;2023-07-28T06:11:27;16.92;;;12.23;;
52031;SDS011;38044;45.148;39.604;2023-07-28T06:13:53;22.90;;;15.57;;
52031;SDS011;38044;45.148;39.604;2023-07-28T06:16:19;18.33;;;12.60;;
52031;SDS011;38044;45.148;39.604;2023-07-28T06:18:45;16.70;;;11.10;;
52031;SDS011;38044;45.148;39.604;2023-07-28T06:21:11;20.17;;;12.57;;
52031;SDS011;38044;45.148;39.604;2023-07-28T06:23:37;21.25;;;13.48;;
52031;SDS011;38044;45.148;39.604;2023-07-28T06:26:03;25.83;;;14.40;;
52031;SDS011;38044;45.148;39.604;2023-07-28T06:28:28;18.27;;;12.35;;
52031;SDS011;38044;45.148;39.604;2023-07-28T06:30:54;17.87;;;11.00;;
52031;SDS011;38044;45.148;39.604;2023-07-28T06:33:21;18.20;;;9.85;;
52031;SDS011;38044;45.148;39.604;2023-07-28T06:35:47;20.95;;;12.05;;
52031;SDS011;38044;45.148;39.604;2023-07-28T06:38:12;19.83;;;12.10;;
52031;SDS011;38044;45.148;39.604;2023-07-28T06:40:38;21.10;;;12.77;;
52031;SDS011;38044;45.148;39.604;2023-07-28T06:45:30;15.52;;;9.88;;
52031;SDS011;38044;45.148;39.604;2023-07-28T07:22:01;12.20;;;7.17;;
52031;SDS011;38044;45.148;39.604;2023-07-28T07:24:27;17.48;;;9.95;;
52031;SDS011;38044;45.148;39.604;2023-07-28T07:26:54;13.65;;;8.57;;
52031;SDS011;38044;45.148;39.604;2023-07-28T07:29:19;13.80;;;7.57;;
52031;SDS011;38044;45.148;39.604;2023-07-28T07:31:45;13.23;;;8.27;;
52031;SDS011;38044;45.148;39.604;2023-07-28T07:34:11;14.60;;;8.80;;
52031;SDS011;38044;45.148;39.604;2023-07-28T07:36:37;13.88;;;8.48;;
52031;SDS011;38044;45.148;39.604;2023-07-28T07:39:04;13.77;;;9.07;;
52031;SDS011;38044;45.148;39.604;2023-07-28T07:41:31;12.52;;;7.32;;
52031;SDS011;38044;45.148;39.604;2023-07-28T07:43:57;11.47;;;7.07;;
52031;SDS011;38044;45.148;39.604;2023-07-28T07:46:23;12.20;;;7.03;;
52031;SDS011;38044;45.148;39.604;2023-07-28T07:48:49;9.38;;;6.97;;
52031;SDS011;38044;45.148;39.604;2023-07-28T07:51:15;11.13;;;7.10;;
52031;SDS011;38044;45.148;39.604;2023-07-28T07:53:42;12.07;;;7.13;;
52031;SDS011;38044;45.148;39.604;2023-07-28T07:56:08;11.50;;;6.82;;
52031;SDS011;38044;45.148;39.604;2023-07-28T07:58:35;11.35;;;6.65;;
52031;SDS011;38044;45.148;39.604;2023-07-28T08:01:01;11.73;;;6.40;;
52031;SDS011;38044;45.148;39.604;2023-07-28T08:03:26;13.43;;;6.70;;
52031;SDS011;38044;45.148;39.604;2023-07-28T08:05:52;15.27;;;6.68;;
52031;SDS011;38044;45.148;39.604;2023-07-28T08:08:19;13.32;;;6.55;;
52031;SDS011;38044;45.148;39.604;2023-07-28T08:10:45;12.70;;;6.47;;
52031;SDS011;38044;45.148;39.604;2023-07-28T08:13:12;12.97;;;6.37;;
52031;SDS011;38044;45.148;39.604;2023-07-28T08:15:38;7.13;;;5.30;;
52031;SDS011;38044;45.148;39.604;2023-07-28T08:18:04;11.30;;;5.00;;
52031;SDS011;38044;45.148;39.604;2023-07-28T08:20:30;16.67;;;6.90;;
52031;SDS011;38044;45.148;39.604;2023-07-28T08:22:56;13.65;;;6.82;;
52031;SDS011;38044;45.148;39.604;2023-07-28T08:25:22;16.35;;;5.22;;
52031;SDS011;38044;45.148;39.604;2023-07-28T08:27:49;13.43;;;6.32;;
52031;SDS011;38044;45.148;39.604;2023-07-28T08:30:15;12.95;;;5.10;;
52031;SDS011;38044;45.148;39.604;2023-07-28T08:32:41;22.10;;;5.73;;
52031;SDS011;38044;45.148;39.604;2023-07-28T08:35:08;14.95;;;7.40;;
52031;SDS011;38044;45.148;39.604;2023-07-28T08:37:34;17.13;;;7.28;;
52031;SDS011;38044;45.148;39.604;2023-07-28T08:40:00;16.07;;;6.90;;
52031;SDS011;38044;45.148;39.604;2023-07-28T08:42:28;12.97;;;4.83;;
52031;SDS011;38044;45.148;39.604;2023-07-28T08:45:00;23.80;;;6.82;;
52031;SDS011;38044;45.148;39.604;2023-07-28T08:47:28;11.55;;;4.85;;
52031;SDS011;38044;45.148;39.604;2023-07-28T08:49:54;13.68;;;3.53;;
52031;SDS011;38044;45.148;39.604;2023-07-28T08:52:19;32.47;;;3.92;;
52031;SDS011;38044;45.148;39.604;2023-07-28T08:54:45;12.73;;;3.77;;
52031;SDS011;38044;45.148;39.604;2023-07-28T08:57:11;7.07;;;2.53;;
52031;SDS011;38044;45.148;39.604;2023-07-28T08:59:37;14.23;;;3.13;;
52031;SDS011;38044;45.148;39.604;2023-07-28T09:02:08;11.45;;;2.78;;
52031;SDS011;38044;45.148;39.604;2023-07-28T09:04:35;9.43;;;3.67;;
52031;SDS011;38044;45.148;39.604;2023-07-28T09:07:02;9.75;;;3.30;;
52031;SDS011;38044;45.148;39.604;2023-07-28T09:09:31;8.43;;;2.92;;
52031;SDS011;38044;45.148;39.604;2023-07-28T09:11:59;13.98;;;5.60;;
52031;SDS011;38044;45.148;39.604;2023-07-28T09:14:25;7.90;;;2.58;;
52031;SDS011;38044;45.148;39.604;2023-07-28T09:16:51;5.80;;;2.07;;
52031;SDS011;38044;45.148;39.604;2023-07-28T09:19:19;15.65;;;2.55;;
52031;SDS011;38044;45.148;39.604;2023-07-28T09:21:47;15.57;;;3.70;;
52031;SDS011;38044;45.148;39.604;2023-07-28T09:24:32;12.30;;;4.43;;
52031;SDS011;38044;45.148;39.604;2023-07-28T09:26:58;11.85;;;4.50;;
52031;SDS011;38044;45.148;39.604;2023-07-28T09:29:25;11.90;;;3.63;;
52031;SDS011;38044;45.148;39.604;2023-07-28T09:31:53;16.63;;;3.93;;
52031;SDS011;38044;45.148;39.604;2023-07-28T09:34:28;10.18;;;3.47;;
52031;SDS011;38044;45.148;39.604;2023-07-28T09:36:54;11.98;;;3.13;;
52031;SDS011;38044;45.148;39.604;2023-07-28T09:39:21;8.70;;;2.85;;
52031;SDS011;38044;45.148;39.604;2023-07-28T09:41:47;10.57;;;3.53;;
52031;SDS011;38044;45.148;39.604;2023-07-28T09:44:14;9.37;;;3.10;;
52031;SDS011;38044;45.148;39.604;2023-07-28T09:46:50;8.73;;;3.00;;
52031;SDS011;38044;45.148;39.604;2023-07-28T09:49:21;10.10;;;2.77;;
52031;SDS011;38044;45.148;39.604;2023-07-28T09:51:53;16.80;;;4.53;;
52031;SDS011;38044;45.148;39.604;2023-07-28T09:54:29;10.50;;;2.70;;
52031;SDS011;38044;45.148;39.604;2023-07-28T09:56:56;6.57;;;2.03;;
52031;SDS011;38044;45.148;39.604;2023-07-28T09:59:34;5.43;;;2.08;;
52031;SDS011;38044;45.148;39.604;2023-07-28T10:02:03;8.38;;;2.85;;
52031;SDS011;38044;45.148;39.604;2023-07-28T10:04:31;8.77;;;3.47;;
52031;SDS011;38044;45.148;39.604;2023-07-28T10:06:58;15.23;;;6.00;;
52031;SDS011;38044;45.148;39.604;2023-07-28T10:09:25;13.48;;;7.03;;
52031;SDS011;38044;45.148;39.604;2023-07-28T10:11:53;16.23;;;9.60;;
52031;SDS011;38044;45.148;39.604;2023-07-28T10:14:27;17.75;;;7.85;;
52031;SDS011;38044;45.148;39.604;2023-07-28T10:17:00;22.00;;;10.50;;
52031;SDS011;38044;45.148;39.604;2023-07-28T10:19:27;9.40;;;4.67;;
52031;SDS011;38044;45.148;39.604;2023-07-28T10:22:02;14.95;;;6.72;;
52031;SDS011;38044;45.148;39.604;2023-07-28T10:27:44;9.43;;;3.72;;
52031;SDS011;38044;45.148;39.604;2023-07-28T10:30:14;10.48;;;4.03;;
52031;SDS011;38044;45.148;39.604;2023-07-28T10:32:42;18.92;;;4.53;;
52031;SDS011;38044;45.148;39.604;2023-07-28T10:37:38;5.45;;;1.52;;
52031;SDS011;38044;45.148;39.604;2023-07-28T10:42:52;6.70;;;2.00;;
52031;SDS011;38044;45.148;39.604;2023-07-28T10:45:19;5.47;;;1.48;;
52031;SDS011;38044;45.148;39.604;2023-07-28T10:47:45;5.93;;;1.63;;
52031;SDS011;38044;45.148;39.604;2023-07-28T10:50:13;7.20;;;2.13;;
52031;SDS011;38044;45.148;39.604;2023-07-28T10:52:39;9.77;;;3.00;;
52031;SDS011;38044;45.148;39.604;2023-07-28T10:55:15;6.45;;;2.60;;
52031;SDS011;38044;45.148;39.604;2023-07-28T10:57:43;5.68;;;1.23;;
52031;SDS011;38044;45.148;39.604;2023-07-28T11:00:11;4.72;;;1.30;;
52031;SDS011;38044;45.148;39.604;2023-07-28T11:02:38;6.28;;;1.67;;
52031;SDS011;38044;45.148;39.604;2023-07-28T11:05:11;2.53;;;0.98;;
52031;SDS011;38044;45.148;39.604;2023-07-28T11:07:43;6.65;;;1.40;;
52031;SDS011;38044;45.148;39.604;2023-07-28T11:10:13;4.18;;;1.00;;
52031;SDS011;38044;45.148;39.604;2023-07-28T11:12:43;5.30;;;1.67;;
52031;SDS011;38044;45.148;39.604;2023-07-28T11:15:10;5.10;;;1.27;;
52031;SDS011;38044;45.148;39.604;2023-07-28T11:17:39;3.63;;;1.23;;
52031;SDS011;38044;45.148;39.604;2023-07-28T11:20:18;3.90;;;1.35;;
52031;SDS011;38044;45.148;39.604;2023-07-28T11:22:46;5.38;;;1.48;;
52031;SDS011;38044;45.148;39.604;2023-07-28T11:25:17;6.15;;;1.50;;
52031;SDS011;38044;45.148;39.604;2023-07-28T11:27:44;7.63;;;2.13;;
52031;SDS011;38044;45.148;39.604;2023-07-28T11:30:14;6.22;;;1.48;;
52031;SDS011;38044;45.148;39.604;2023-07-28T11:32:48;7.93;;;1.40;;
52031;SDS011;38044;45.148;39.604;2023-07-28T11:35:16;4.53;;;1.20;;
52031;SDS011;38044;45.148;39.604;2023-07-28T11:37:45;4.47;;;1.65;;
52031;SDS011;38044;45.148;39.604;2023-07-28T11:40:13;6.30;;;1.60;;
52031;SDS011;38044;45.148;39.604;2023-07-28T11:42:45;3.28;;;0.90;;
52031;SDS011;38044;45.148;39.604;2023-07-28T11:45:14;5.13;;;1.00;;
52031;SDS011;38044;45.148;39.604;2023-07-28T11:47:57;11.57;;;1.08;;
52031;SDS011;38044;45.148;39.604;2023-07-28T11:50:26;3.33;;;0.80;;
52031;SDS011;38044;45.148;39.604;2023-07-28T11:52:53;7.65;;;1.00;;
52031;SDS011;38044;45.148;39.604;2023-07-28T11:55:21;7.68;;;1.00;;
52031;SDS011;38044;45.148;39.604;2023-07-28T11:57:54;8.75;;;1.00;;
52031;SDS011;38044;45.148;39.604;2023-07-28T12:00:29;4.75;;;1.00;;
52031;SDS011;38044;45.148;39.604;2023-07-28T12:03:08;5.47;;;1.00;;
52031;SDS011;38044;45.148;39.604;2023-07-28T12:05:36;4.55;;;1.05;;
52031;SDS011;38044;45.148;39.604;2023-07-28T12:08:07;4.53;;;1.00;;
52031;SDS011;38044;45.148;39.604;2023-07-28T12:10:33;5.13;;;1.30;;
52031;SDS011;38044;45.148;39.604;2023-07-28T12:13:03;4.18;;;0.98;;
52031;SDS011;38044;45.148;39.604;2023-07-28T12:15:31;9.02;;;1.30;;
52031;SDS011;38044;45.148;39.604;2023-07-28T12:18:04;6.43;;;1.25;;
52031;SDS011;38044;45.148;39.604;2023-07-28T12:20:34;2.75;;;0.80;;
52031;SDS011;38044;45.148;39.604;2023-07-28T12:23:05;9.48;;;1.55;;
52031;SDS011;38044;45.148;39.604;2023-07-28T12:25:32;4.20;;;1.23;;
52031;SDS011;38044;45.148;39.604;2023-07-28T12:27:58;3.78;;;1.20;;
52031;SDS011;38044;45.148;39.604;2023-07-28T12:30:24;3.50;;;1.30;;
52031;SDS011;38044;45.148;39.604;2023-07-28T12:32:50;6.55;;;1.27;;
52031;SDS011;38044;45.148;39.604;2023-07-28T12:35:16;5.75;;;1.55;;
52031;SDS011;38044;45.148;39.604;2023-07-28T12:37:42;5.28;;;1.70;;
52031;SDS011;38044;45.148;39.604;2023-07-28T12:40:08;5.85;;;1.30;;
52031;SDS011;38044;45.148;39.604;2023-07-28T12:45:57;5.35;;;1.33;;
52031;SDS011;38044;45.148;39.604;2023-07-28T12:48:23;5.50;;;1.33;;
52031;SDS011;38044;45.148;39.604;2023-07-28T12:50:49;9.02;;;1.40;;
52031;SDS011;38044;45.148;39.604;2023-07-28T12:53:15;4.95;;;1.05;;
52031;SDS011;38044;45.148;39.604;2023-07-28T12:55:41;6.10;;;1.20;;
52031;SDS011;38044;45.148;39.604;2023-07-28T12:58:07;9.13;;;1.20;;
52031;SDS011;38044;45.148;39.604;2023-07-28T13:00:34;5.30;;;1.10;;
52031;SDS011;38044;45.148;39.604;2023-07-28T13:03:00;4.82;;;1.35;;
52031;SDS011;38044;45.148;39.604;2023-07-28T13:05:25;4.00;;;1.00;;
52031;SDS011;38044;45.148;39.604;2023-07-28T13:07:52;6.75;;;1.20;;
52031;SDS011;38044;45.148;39.604;2023-07-28T13:10:18;4.80;;;1.10;;
52031;SDS011;38044;45.148;39.604;2023-07-28T13:12:43;4.20;;;1.10;;
52031;SDS011;38044;45.148;39.604;2023-07-28T13:15:09;3.65;;;1.15;;
52031;SDS011;38044;45.148;39.604;2023-07-28T13:17:35;5.10;;;1.20;;
52031;SDS011;38044;45.148;39.604;2023-07-28T13:20:01;4.32;;;0.80;;
52031;SDS011;38044;45.148;39.604;2023-07-28T13:22:28;3.92;;;0.90;;
52031;SDS011;38044;45.148;39.604;2023-07-28T13:24:54;7.82;;;1.10;;
52031;SDS011;38044;45.148;39.604;2023-07-28T13:27:19;6.23;;;0.90;;
52031;SDS011;38044;45.148;39.604;2023-07-28T13:29:45;4.57;;;0.90;;
52031;SDS011;38044;45.148;39.604;2023-07-28T13:32:15;8.17;;;0.97;;
52031;SDS011;38044;45.148;39.604;2023-07-28T13:37:55;4.05;;;0.73;;
52031;SDS011;38044;45.148;39.604;2023-07-28T13:40:21;7.00;;;1.23;;
52031;SDS011;38044;45.148;39.604;2023-07-28T13:42:47;5.90;;;0.82;;
52031;SDS011;38044;45.148;39.604;2023-07-28T13:45:13;3.60;;;0.93;;
52031;SDS011;38044;45.148;39.604;2023-07-28T13:47:39;6.22;;;1.05;;
52031;SDS011;38044;45.148;39.604;2023-07-28T13:50:05;7.28;;;1.20;;
52031;SDS011;38044;45.148;39.604;2023-07-28T13:52:32;2.40;;;0.88;;
52031;SDS011;38044;45.148;39.604;2023-07-28T13:54:58;24.65;;;1.63;;
52031;SDS011;38044;45.148;39.604;2023-07-28T14:00:33;4.32;;;0.90;;
52031;SDS011;38044;45.148;39.604;2023-07-28T14:02:59;5.82;;;0.90;;
52031;SDS011;38044;45.148;39.604;2023-07-28T14:05:25;4.90;;;1.00;;
52031;SDS011;38044;45.148;39.604;2023-07-28T14:10:51;9.60;;;1.05;;
52031;SDS011;38044;45.148;39.604;2023-07-28T14:13:17;7.28;;;1.05;;
52031;SDS011;38044;45.148;39.604;2023-07-28T14:15:43;5.53;;;1.20;;
52031;SDS011;38044;45.148;39.604;2023-07-28T14:18:09;7.22;;;1.17;;
52031;SDS011;38044;45.148;39.604;2023-07-28T14:23:37;4.63;;;0.95;;
52031;SDS011;38044;45.148;39.604;2023-07-28T14:26:21;4.57;;;1.02;;
52031;SDS011;38044;45.148;39.604;2023-07-28T14:28:47;4.70;;;1.00;;
52031;SDS011;38044;45.148;39.604;2023-07-28T14:31:13;3.30;;;1.00;;
52031;SDS011;38044;45.148;39.604;2023-07-28T14:33:38;4.27;;;1.13;;
52031;SDS011;38044;45.148;39.604;2023-07-28T14:36:04;6.47;;;1.63;;
52031;SDS011;38044;45.148;39.604;2023-07-28T14:41:14;5.87;;;1.30;;
52031;SDS011;38044;45.148;39.604;2023-07-28T14:43:40;8.27;;;1.40;;
52031;SDS011;38044;45.148;39.604;2023-07-28T14:46:06;5.45;;;1.40;;
52031;SDS011;38044;45.148;39.604;2023-07-28T14:48:32;6.05;;;1.63;;
52031;SDS011;38044;45.148;39.604;2023-07-28T14:50:58;4.20;;;1.50;;
52031;SDS011;38044;45.148;39.604;2023-07-28T14:53:36;6.43;;;1.63;;
52031;SDS011;38044;45.148;39.604;2023-07-28T14:56:04;5.40;;;1.38;;
52031;SDS011;38044;45.148;39.604;2023-07-28T14:58:30;5.82;;;1.55;;
52031;SDS011;38044;45.148;39.604;2023-07-28T15:00:57;4.28;;;1.40;;
52031;SDS011;38044;45.148;39.604;2023-07-28T15:03:25;2.85;;;1.40;;
52031;SDS011;38044;45.148;39.604;2023-07-28T15:05:52;4.45;;;1.42;;
52031;SDS011;38044;45.148;39.604;2023-07-28T15:08:18;4.63;;;1.75;;
52031;SDS011;38044;45.148;39.604;2023-07-28T15:10:44;5.15;;;1.50;;
52031;SDS011;38044;45.148;39.604;2023-07-28T15:13:10;6.70;;;1.40;;
52031;SDS011;38044;45.148;39.604;2023-07-28T15:15:36;3.80;;;1.50;;
52031;SDS011;38044;45.148;39.604;2023-07-28T15:18:02;6.43;;;2.00;;
52031;SDS011;38044;45.148;39.604;2023-07-28T15:20:28;4.40;;;1.65;;
52031;SDS011;38044;45.148;39.604;2023-07-28T15:22:53;2.97;;;1.33;;
52031;SDS011;38044;45.148;39.604;2023-07-28T15:25:19;5.10;;;1.83;;
52031;SDS011;38044;45.148;39.604;2023-07-28T15:27:45;5.57;;;2.53;;
52031;SDS011;38044;45.148;39.604;2023-07-28T15:30:11;4.10;;;1.00;;
52031;SDS011;38044;45.148;39.604;2023-07-28T15:32:37;3.40;;;0.70;;
52031;SDS011;38044;45.148;39.604;2023-07-28T15:35:04;3.22;;;0.90;;
52031;SDS011;38044;45.148;39.604;2023-07-28T15:37:30;2.92;;;1.30;;
52031;SDS011;38044;45.148;39.604;2023-07-28T15:39:57;6.65;;;1.90;;
52031;SDS011;38044;45.148;39.604;2023-07-28T15:42:23;4.15;;;0.80;;